createdAt,value
2022-08-04T00:00:26.328Z,28.00
2022-08-04T00:01:53.808Z,28.00
2022-08-04T00:03:19.433Z,27.90
2022-08-04T00:04:50.208Z,27.90
2022-08-04T00:06:05.391Z,27.90
2022-08-04T00:07:24.124Z,27.90
2022-08-04T00:08:55.619Z,27.80
2022-08-04T00:10:04.007Z,27.80
2022-08-04T00:11:09.033Z,27.70
2022-08-04T00:12:19.925Z,27.70
2022-08-04T00:13:27.059Z,27.70
2022-08-04T00:14:34.211Z,27.70
2022-08-04T00:15:37.314Z,27.70
2022-08-04T00:16:41.936Z,27.60
2022-08-04T00:17:55.347Z,27.70
2022-08-04T00:19:18.397Z,27.60
2022-08-04T00:20:21.450Z,27.60
2022-08-04T00:21:26.050Z,27.60
2022-08-04T00:22:29.771Z,27.60
2022-08-04T00:24:11.103Z,27.60
2022-08-04T00:24:58.181Z,27.60
2022-08-04T00:26:01.006Z,27.70
2022-08-04T00:27:03.672Z,27.60
2022-08-04T00:28:05.334Z,27.60
2022-08-04T00:29:07.542Z,27.60
2022-08-04T00:30:09.717Z,27.30
2022-08-04T00:31:12.043Z,27.60
2022-08-04T00:32:34.135Z,27.50
2022-08-04T00:33:38.570Z,27.60
2022-08-04T00:34:41.077Z,27.60
2022-08-04T00:35:44.552Z,27.60
2022-08-04T00:36:46.659Z,27.60
2022-08-04T00:37:49.300Z,27.50
2022-08-04T00:38:52.163Z,27.50
2022-08-04T00:39:55.002Z,27.50
2022-08-04T00:41:11.764Z,27.50
2022-08-04T00:42:31.396Z,27.50
2022-08-04T00:43:33.191Z,27.50
2022-08-04T00:45:02.367Z,27.60
2022-08-04T00:46:45.073Z,27.40
2022-08-04T00:48:11.386Z,27.40
2022-08-04T00:49:25.024Z,27.40
2022-08-04T00:50:44.684Z,27.30
2022-08-04T00:52:32.673Z,27.30
2022-08-04T00:53:40.357Z,27.40
2022-08-04T00:55:06.935Z,27.30
2022-08-04T00:56:58.475Z,27.30
2022-08-04T00:58:18.907Z,27.20
2022-08-04T00:59:49.942Z,27.20
2022-08-04T01:01:03.977Z,27.30
2022-08-04T01:02:22.629Z,27.30
2022-08-04T01:03:34.108Z,27.10
2022-08-04T01:07:03.916Z,27.10
2022-08-04T01:08:47.151Z,27.00
2022-08-04T01:10:14.225Z,26.90
2022-08-04T01:11:28.773Z,26.90
2022-08-04T01:12:49.513Z,26.80
2022-08-04T01:13:57.431Z,26.80
2022-08-04T01:15:15.165Z,26.80
2022-08-04T01:16:18.154Z,26.80
2022-08-04T01:17:25.541Z,26.80
2022-08-04T01:18:57.756Z,26.70
2022-08-04T01:20:10.501Z,26.70
2022-08-04T01:21:30.687Z,26.70
2022-08-04T01:22:32.280Z,26.70
2022-08-04T01:23:39.825Z,26.70
2022-08-04T01:25:08.562Z,26.70
2022-08-04T01:26:43.198Z,26.70
2022-08-04T01:28:15.570Z,26.70
2022-08-04T01:29:22.990Z,26.70
2022-08-04T01:30:27.675Z,26.60
2022-08-04T01:31:55.376Z,26.60
2022-08-04T01:33:04.384Z,26.70
2022-08-04T01:34:09.930Z,26.70
2022-08-04T01:35:21.930Z,26.70
2022-08-04T01:36:25.588Z,26.70
2022-08-04T01:37:46.038Z,26.70
2022-08-04T01:38:48.279Z,26.70
2022-08-04T01:39:58.077Z,26.70
2022-08-04T01:41:03.665Z,26.60
2022-08-04T01:42:06.464Z,26.60
2022-08-04T01:43:14.480Z,26.60
2022-08-04T01:44:18.648Z,26.60
2022-08-04T01:45:23.020Z,26.60
2022-08-04T01:46:26.880Z,26.60
2022-08-04T01:47:30.366Z,26.50
2022-08-04T01:48:32.766Z,26.50
2022-08-04T01:49:40.139Z,26.50
2022-08-04T01:50:45.160Z,26.50
2022-08-04T01:51:51.046Z,26.40
2022-08-04T01:52:54.560Z,26.40
2022-08-04T01:53:56.236Z,26.40
2022-08-04T01:54:58.088Z,26.40
2022-08-04T01:56:01.841Z,26.40
2022-08-04T01:57:45.967Z,26.40
2022-08-04T01:58:30.549Z,26.40
2022-08-04T01:59:34.319Z,26.40
2022-08-04T02:00:42.014Z,26.40
2022-08-04T02:01:43.744Z,26.30
2022-08-04T02:02:47.350Z,26.30
2022-08-04T02:04:20.824Z,26.30
2022-08-04T02:05:14.493Z,26.30
2022-08-04T02:06:36.576Z,26.20
2022-08-04T02:08:17.654Z,26.20
2022-08-04T02:09:54.381Z,26.20
2022-08-04T02:11:08.422Z,26.20
2022-08-04T02:12:23.886Z,26.10
2022-08-04T02:13:47.360Z,26.10
2022-08-04T02:15:22.451Z,26.20
2022-08-04T02:16:42.400Z,26.00
2022-08-04T02:17:43.979Z,26.00
2022-08-04T02:19:01.969Z,26.00
2022-08-04T02:20:07.062Z,25.90
2022-08-04T02:21:09.529Z,25.90
2022-08-04T02:22:18.120Z,25.90
2022-08-04T02:23:36.975Z,25.90
2022-08-04T02:24:50.373Z,25.80
2022-08-04T02:26:04.350Z,25.80
2022-08-04T02:27:07.322Z,25.80
2022-08-04T02:28:16.325Z,25.80
2022-08-04T02:29:49.725Z,25.80
2022-08-04T02:31:13.775Z,25.80
2022-08-04T02:32:27.941Z,25.80
2022-08-04T02:33:45.438Z,25.90
2022-08-04T02:35:06.474Z,25.90
2022-08-04T02:36:14.089Z,25.90
2022-08-04T02:37:21.340Z,25.90
2022-08-04T02:38:55.396Z,25.90
2022-08-04T02:40:01.346Z,25.90
2022-08-04T02:41:05.846Z,26.00
2022-08-04T02:42:07.910Z,25.90
2022-08-04T02:43:15.262Z,25.90
2022-08-04T02:44:22.785Z,25.90
2022-08-04T02:45:26.872Z,26.00
2022-08-04T02:46:30.666Z,25.80
2022-08-04T02:48:28.660Z,26.00
2022-08-04T02:48:56.553Z,25.80
2022-08-04T02:49:59.913Z,26.00
2022-08-04T02:51:03.745Z,26.00
2022-08-04T02:52:11.031Z,26.00
2022-08-04T02:53:16.602Z,26.00
2022-08-04T02:54:33.465Z,26.00
2022-08-04T02:55:36.206Z,26.00
2022-08-04T02:56:40.367Z,26.00
2022-08-04T02:57:45.014Z,26.00
2022-08-04T02:59:14.367Z,26.00
2022-08-04T03:00:17.516Z,26.00
2022-08-04T03:01:21.352Z,26.00
2022-08-04T03:02:32.598Z,26.00
2022-08-04T03:03:44.853Z,26.00
2022-08-04T03:05:00.573Z,26.00
2022-08-04T03:06:28.515Z,26.00
2022-08-04T03:07:39.681Z,26.00
2022-08-04T03:08:47.090Z,26.00
2022-08-04T03:10:19.639Z,26.00
2022-08-04T03:11:49.510Z,26.00
2022-08-04T03:13:29.129Z,26.00
2022-08-04T03:15:24.043Z,26.00
2022-08-04T03:16:55.931Z,25.90
2022-08-04T03:18:39.005Z,25.90
2022-08-04T03:20:14.128Z,25.90
2022-08-04T03:21:34.243Z,25.80
2022-08-04T03:23:12.082Z,25.80
2022-08-04T03:25:10.239Z,25.80
2022-08-04T03:26:31.967Z,25.70
2022-08-04T03:27:48.526Z,25.60
2022-08-04T03:29:11.663Z,25.60
2022-08-04T03:30:29.549Z,25.60
2022-08-04T03:31:47.515Z,25.50
2022-08-04T03:33:26.251Z,25.50
2022-08-04T03:34:58.212Z,25.50
2022-08-04T03:36:31.873Z,25.50
2022-08-04T03:37:59.720Z,25.50
2022-08-04T03:39:26.889Z,25.50
2022-08-04T03:40:55.360Z,25.40
2022-08-04T03:42:32.880Z,25.40
2022-08-04T03:44:07.104Z,25.40
2022-08-04T03:45:39.981Z,25.40
2022-08-04T03:46:56.710Z,25.40
2022-08-04T03:48:22.583Z,25.40
2022-08-04T03:49:56.608Z,25.40
2022-08-04T03:52:01.000Z,25.30
2022-08-04T03:53:17.787Z,25.40
2022-08-04T03:56:32.669Z,25.30
2022-08-04T03:58:15.784Z,25.40
2022-08-04T03:59:42.020Z,25.30
2022-08-04T04:01:12.024Z,25.30
2022-08-04T04:02:34.364Z,25.30
2022-08-04T04:04:00.525Z,25.40
2022-08-04T04:05:11.485Z,25.30
2022-08-04T04:06:33.141Z,25.30
2022-08-04T04:07:59.876Z,25.30
2022-08-04T04:09:03.353Z,25.30
2022-08-04T04:10:28.973Z,25.30
2022-08-04T04:11:57.111Z,25.40
2022-08-04T04:13:49.869Z,25.40
2022-08-04T04:15:11.998Z,25.30
2022-08-04T04:16:38.650Z,25.30
2022-08-04T04:18:28.233Z,25.20
2022-08-04T04:19:52.601Z,25.20
2022-08-04T04:21:21.841Z,25.20
2022-08-04T04:23:02.289Z,25.10
2022-08-04T04:24:34.137Z,25.10
2022-08-04T04:25:42.394Z,25.10
2022-08-04T04:27:01.454Z,25.10
2022-08-04T04:28:50.090Z,25.10
2022-08-04T04:30:08.864Z,25.10
2022-08-04T04:31:53.786Z,25.10
2022-08-04T04:33:25.142Z,25.20
2022-08-04T04:34:57.137Z,25.20
2022-08-04T04:36:13.083Z,25.20
2022-08-04T04:37:21.413Z,25.20
2022-08-04T04:38:34.431Z,25.20
2022-08-04T04:40:03.621Z,25.20
2022-08-04T04:41:22.740Z,25.20
2022-08-04T04:42:53.307Z,25.20
2022-08-04T04:44:30.826Z,25.30
2022-08-04T04:45:58.171Z,25.30
2022-08-04T04:47:11.678Z,25.10
2022-08-04T04:48:27.088Z,25.10
2022-08-04T04:49:54.453Z,25.10
2022-08-04T04:51:12.470Z,25.20
2022-08-04T04:52:52.893Z,25.20
2022-08-04T04:54:00.789Z,25.10
2022-08-04T04:55:05.409Z,25.10
2022-08-04T04:56:16.481Z,25.10
2022-08-04T04:57:23.183Z,25.20
2022-08-04T04:58:43.632Z,25.20
2022-08-04T04:59:56.461Z,25.20
2022-08-04T05:01:10.480Z,25.20
2022-08-04T05:02:24.113Z,25.10
2022-08-04T05:03:44.250Z,25.10
2022-08-04T05:05:06.976Z,25.10
2022-08-04T05:06:32.370Z,25.10
2022-08-04T05:08:45.490Z,25.10
2022-08-04T05:09:58.664Z,25.10
2022-08-04T05:11:25.642Z,25.10
2022-08-04T05:14:36.727Z,25.10
2022-08-04T05:14:48.338Z,25.10
2022-08-04T05:15:55.057Z,25.10
2022-08-04T05:17:11.167Z,25.10
2022-08-04T05:18:19.862Z,25.10
2022-08-04T05:19:42.791Z,25.20
2022-08-04T05:20:48.742Z,25.10
2022-08-04T05:21:59.509Z,25.20
2022-08-04T05:23:10.949Z,25.10
2022-08-04T05:24:17.745Z,25.10
2022-08-04T05:25:50.156Z,25.20
2022-08-04T05:27:07.357Z,25.10
2022-08-04T05:28:23.380Z,25.20
2022-08-04T05:29:41.261Z,25.20
2022-08-04T05:30:49.916Z,25.20
2022-08-04T05:31:54.373Z,25.20
2022-08-04T05:32:59.225Z,25.20
2022-08-04T05:34:26.277Z,25.30
2022-08-04T05:35:49.833Z,25.40
2022-08-04T05:37:07.491Z,25.40
2022-08-04T05:38:11.976Z,25.50
2022-08-04T05:39:20.177Z,25.60
2022-08-04T05:40:25.229Z,25.70
2022-08-04T05:41:32.422Z,25.70
2022-08-04T05:42:49.177Z,25.70
2022-08-04T05:43:52.616Z,25.80
2022-08-04T05:44:55.973Z,25.90
2022-08-04T05:46:00.453Z,25.90
2022-08-04T05:47:04.284Z,26.00
2022-08-04T05:48:08.603Z,26.10
2022-08-04T05:49:11.229Z,26.10
2022-08-04T05:50:19.143Z,26.20
2022-08-04T05:51:23.303Z,26.20
2022-08-04T05:52:26.031Z,26.30
2022-08-04T05:53:29.020Z,26.30
2022-08-04T05:54:33.118Z,26.40
2022-08-04T05:55:48.920Z,26.60
2022-08-04T05:56:58.283Z,26.50
2022-08-04T05:58:01.919Z,26.60
2022-08-04T05:59:05.436Z,26.70
2022-08-04T06:00:31.823Z,26.70
2022-08-04T06:01:32.690Z,26.80
2022-08-04T06:02:56.792Z,26.90
2022-08-04T06:04:01.476Z,27.10
2022-08-04T06:05:05.847Z,27.10
2022-08-04T06:06:09.718Z,27.20
2022-08-04T06:07:11.535Z,27.40
2022-08-04T06:08:14.560Z,27.40
2022-08-04T06:09:16.330Z,27.60
2022-08-04T06:10:23.081Z,27.60
2022-08-04T06:12:01.754Z,27.70
2022-08-04T06:13:01.394Z,27.80
2022-08-04T06:14:07.331Z,27.80
2022-08-04T06:15:13.357Z,27.90
2022-08-04T06:16:29.654Z,28.00
2022-08-04T06:18:32.989Z,28.00
2022-08-04T06:20:03.667Z,28.00
2022-08-04T06:20:34.677Z,28.00
2022-08-04T06:21:39.923Z,27.90
2022-08-04T06:22:43.520Z,27.90
2022-08-04T06:23:56.083Z,28.00
2022-08-04T06:25:05.406Z,28.00
2022-08-04T06:26:12.330Z,28.00
2022-08-04T06:27:15.557Z,28.00
2022-08-04T06:28:19.387Z,28.00
2022-08-04T06:29:30.793Z,27.90
2022-08-04T06:30:37.222Z,27.80
2022-08-04T06:32:26.791Z,27.90
2022-08-04T06:33:54.630Z,27.90
2022-08-04T06:35:04.641Z,28.00
2022-08-04T06:36:07.529Z,28.00
2022-08-04T06:37:10.427Z,28.00
2022-08-04T06:38:12.626Z,28.00
2022-08-04T06:39:16.304Z,27.90
2022-08-04T06:40:31.597Z,27.80
2022-08-04T06:42:16.988Z,27.80
2022-08-04T06:43:07.123Z,27.80
2022-08-04T06:44:11.237Z,27.70
2022-08-04T06:45:14.526Z,27.80
2022-08-04T06:46:16.791Z,27.70
2022-08-04T06:47:21.255Z,27.70
2022-08-04T06:48:24.610Z,27.80
2022-08-04T06:49:55.091Z,27.70
2022-08-04T06:51:27.652Z,27.70
2022-08-04T06:52:23.523Z,27.80
2022-08-04T06:53:26.176Z,27.80
2022-08-04T06:54:27.848Z,27.80
2022-08-04T06:55:30.089Z,27.80
2022-08-04T06:56:34.797Z,27.80
2022-08-04T06:57:37.060Z,27.80
2022-08-04T06:58:40.798Z,27.90
2022-08-04T07:00:12.337Z,28.00
2022-08-04T07:01:16.706Z,27.90
2022-08-04T07:02:22.547Z,27.90
2022-08-04T07:03:24.450Z,27.90
2022-08-04T07:04:26.302Z,27.90
2022-08-04T07:05:28.954Z,27.90
2022-08-04T07:06:31.472Z,27.90
2022-08-04T07:07:33.696Z,27.90
2022-08-04T07:08:39.608Z,27.90
2022-08-04T07:09:41.516Z,27.90
2022-08-04T07:10:45.780Z,28.10
2022-08-04T07:11:52.073Z,28.00
2022-08-04T07:12:54.794Z,27.90
2022-08-04T07:13:57.779Z,28.00
2022-08-04T07:14:59.935Z,28.00
2022-08-04T07:16:01.905Z,28.00
2022-08-04T07:17:08.789Z,28.10
2022-08-04T07:18:10.568Z,28.10
2022-08-04T07:19:15.899Z,28.20
2022-08-04T07:20:32.968Z,28.20
2022-08-04T07:21:37.313Z,28.20
2022-08-04T07:22:41.968Z,28.30
2022-08-04T07:23:45.775Z,28.30
2022-08-04T07:24:47.921Z,28.30
2022-08-04T07:25:59.782Z,28.20
2022-08-04T07:27:14.005Z,28.20
2022-08-04T07:28:15.740Z,28.30
2022-08-04T07:29:18.376Z,28.20
2022-08-04T07:30:24.595Z,28.20
2022-08-04T07:31:34.612Z,28.20
2022-08-04T07:32:38.678Z,28.20
2022-08-04T07:33:42.301Z,28.30
2022-08-04T07:34:44.609Z,28.50
2022-08-04T07:36:09.679Z,28.30
2022-08-04T07:37:14.232Z,28.40
2022-08-04T07:38:16.269Z,28.50
2022-08-04T07:39:27.191Z,28.60
2022-08-04T07:40:30.894Z,28.70
2022-08-04T07:41:35.673Z,28.60
2022-08-04T07:42:38.626Z,28.70
2022-08-04T07:43:41.855Z,28.70
2022-08-04T07:44:45.652Z,28.80
2022-08-04T07:45:47.518Z,28.80
2022-08-04T07:46:49.197Z,28.90
2022-08-04T07:48:04.246Z,28.90
2022-08-04T07:49:08.213Z,29.00
2022-08-04T07:50:11.106Z,29.00
2022-08-04T07:51:13.298Z,29.10
2022-08-04T07:52:16.133Z,29.10
2022-08-04T07:53:55.496Z,29.10
2022-08-04T07:54:41.583Z,29.10
2022-08-04T07:55:46.206Z,29.20
2022-08-04T07:56:54.070Z,29.20
2022-08-04T07:57:56.128Z,29.30
2022-08-04T07:58:58.216Z,29.30
2022-08-04T08:00:01.007Z,29.40
2022-08-04T08:01:03.025Z,29.50
2022-08-04T08:02:04.884Z,29.50
2022-08-04T08:03:08.081Z,29.50
2022-08-04T08:04:11.374Z,29.60
2022-08-04T08:05:14.763Z,29.60
2022-08-04T08:06:30.695Z,29.70
2022-08-04T08:07:35.929Z,29.80
2022-08-04T08:08:41.899Z,29.80
2022-08-04T08:09:43.658Z,29.80
2022-08-04T08:10:48.819Z,29.80
2022-08-04T08:12:35.502Z,29.90
2022-08-04T08:13:15.977Z,29.90
2022-08-04T08:14:18.872Z,30.00
2022-08-04T08:15:22.960Z,30.00
2022-08-04T08:16:25.932Z,30.00
2022-08-04T08:17:27.624Z,30.00
2022-08-04T08:18:30.281Z,30.10
2022-08-04T08:19:33.164Z,30.10
2022-08-04T08:20:34.896Z,30.10
2022-08-04T08:21:59.542Z,30.10
2022-08-04T08:23:05.435Z,30.20
2022-08-04T08:24:12.681Z,30.20
2022-08-04T08:25:14.714Z,30.20
2022-08-04T08:26:17.290Z,30.40
2022-08-04T08:27:20.874Z,30.30
2022-08-04T08:28:22.973Z,30.30
2022-08-04T08:29:26.612Z,30.40
2022-08-04T08:30:31.743Z,30.40
2022-08-04T08:31:57.426Z,30.40
2022-08-04T08:33:01.361Z,30.50
2022-08-04T08:34:03.184Z,30.50
2022-08-04T08:35:06.550Z,30.60
2022-08-04T08:36:42.017Z,30.60
2022-08-04T08:37:53.000Z,30.60
2022-08-04T08:39:24.294Z,30.70
2022-08-04T08:40:57.829Z,30.70
2022-08-04T08:42:27.570Z,30.70
2022-08-04T08:44:00.250Z,30.80
2022-08-04T08:45:45.066Z,30.80
2022-08-04T08:47:21.390Z,30.80
2022-08-04T08:48:51.802Z,30.90
2022-08-04T08:50:04.718Z,30.90
2022-08-04T08:51:31.750Z,30.90
2022-08-04T08:53:03.180Z,31.00
2022-08-04T08:54:40.697Z,31.00
2022-08-04T08:56:00.317Z,31.10
2022-08-04T08:57:26.508Z,31.10
2022-08-04T08:58:57.208Z,31.20
2022-08-04T09:00:01.509Z,31.20
2022-08-04T09:01:42.023Z,31.20
2022-08-04T09:03:13.337Z,31.20
2022-08-04T09:04:53.152Z,31.20
2022-08-04T09:05:57.570Z,31.30
2022-08-04T09:07:32.515Z,31.30
2022-08-04T09:08:46.256Z,31.30
2022-08-04T09:10:19.004Z,31.30
2022-08-04T09:11:24.404Z,31.40
2022-08-04T09:12:49.203Z,31.40
2022-08-04T09:14:04.661Z,31.40
2022-08-04T09:15:12.802Z,31.50
2022-08-04T09:16:24.221Z,31.60
2022-08-04T09:17:37.400Z,31.70
2022-08-04T09:18:45.346Z,31.70
2022-08-04T09:19:56.186Z,31.80
2022-08-04T09:21:19.826Z,31.80
2022-08-04T09:22:29.649Z,31.90
2022-08-04T09:24:00.223Z,32.00
2022-08-04T09:25:10.625Z,32.00
2022-08-04T09:26:49.678Z,32.00
2022-08-04T09:28:11.072Z,32.10
2022-08-04T09:29:48.363Z,32.10
2022-08-04T09:31:14.302Z,32.20
2022-08-04T09:32:32.894Z,32.20
2022-08-04T09:33:55.136Z,32.20
2022-08-04T09:35:34.639Z,32.30
2022-08-04T09:36:51.481Z,32.30
2022-08-04T09:38:11.141Z,32.30
2022-08-04T09:39:33.206Z,32.30
2022-08-04T09:40:57.856Z,32.40
2022-08-04T09:42:12.817Z,32.40
2022-08-04T09:44:43.179Z,32.50
2022-08-04T09:45:01.994Z,32.50
2022-08-04T09:46:34.878Z,32.50
2022-08-04T09:47:59.088Z,32.60
2022-08-04T09:49:15.059Z,32.70
2022-08-04T09:50:52.338Z,32.70
2022-08-04T09:52:09.806Z,32.70
2022-08-04T09:53:47.165Z,32.80
2022-08-04T09:54:59.506Z,32.80
2022-08-04T09:56:14.964Z,32.90
2022-08-04T09:58:02.331Z,32.90
2022-08-04T09:59:20.254Z,33.00
2022-08-04T10:00:38.463Z,33.00
2022-08-04T10:01:44.016Z,33.10
2022-08-04T10:02:57.705Z,33.10
2022-08-04T10:04:05.952Z,33.30
2022-08-04T10:05:14.728Z,33.20
2022-08-04T10:06:35.025Z,33.20
2022-08-04T10:08:15.831Z,33.20
2022-08-04T10:09:59.657Z,33.30
2022-08-04T10:11:08.018Z,33.40
2022-08-04T10:12:18.410Z,33.40
2022-08-04T10:13:50.717Z,33.40
2022-08-04T10:14:58.106Z,33.50
2022-08-04T10:16:29.955Z,33.50
2022-08-04T10:17:52.837Z,33.60
2022-08-04T10:19:17.274Z,33.70
2022-08-04T10:20:51.730Z,33.60
2022-08-04T10:22:28.025Z,33.70
2022-08-04T10:23:56.033Z,33.70
2022-08-04T10:26:03.438Z,33.80
2022-08-04T10:26:48.930Z,33.80
2022-08-04T10:28:04.182Z,33.80
2022-08-04T10:29:12.597Z,33.80
2022-08-04T10:30:17.946Z,33.80
2022-08-04T10:31:26.556Z,33.60
2022-08-04T10:32:34.726Z,33.80
2022-08-04T10:34:10.126Z,33.80
2022-08-04T10:35:21.229Z,33.90
2022-08-04T10:36:27.616Z,33.90
2022-08-04T10:37:59.853Z,33.90
2022-08-04T10:39:06.054Z,34.00
2022-08-04T10:40:32.052Z,34.00
2022-08-04T10:41:53.318Z,34.00
2022-08-04T10:43:27.184Z,34.10
2022-08-04T10:44:45.157Z,34.20
2022-08-04T10:45:59.455Z,34.20
2022-08-04T10:47:08.109Z,34.20
2022-08-04T10:48:34.705Z,34.20
2022-08-04T10:49:43.249Z,34.20
2022-08-04T10:51:14.808Z,34.30
2022-08-04T10:52:38.370Z,34.30
2022-08-04T10:53:42.028Z,34.40
2022-08-04T10:54:57.235Z,34.40
2022-08-04T10:56:41.578Z,34.50
2022-08-04T10:57:55.361Z,34.50
2022-08-04T10:59:03.779Z,34.60
2022-08-04T11:00:13.280Z,34.60
2022-08-04T11:02:01.437Z,34.70
2022-08-04T11:03:08.987Z,34.70
2022-08-04T11:04:39.363Z,34.80
2022-08-04T11:05:53.726Z,34.80
2022-08-04T11:06:58.619Z,34.90
2022-08-04T11:08:07.586Z,34.90
2022-08-04T11:09:14.904Z,35.00
2022-08-04T11:10:20.852Z,35.00
2022-08-04T11:11:24.207Z,35.00
2022-08-04T11:12:26.986Z,35.00
2022-08-04T11:13:54.694Z,35.00
2022-08-04T11:15:04.177Z,35.10
2022-08-04T11:16:16.610Z,35.20
2022-08-04T11:17:24.476Z,35.20
2022-08-04T11:19:04.459Z,35.20
2022-08-04T11:20:50.691Z,35.30
2022-08-04T11:22:04.031Z,35.30
2022-08-04T11:23:12.746Z,35.30
2022-08-04T11:24:22.857Z,35.30
2022-08-04T11:25:39.203Z,35.40
2022-08-04T11:26:58.312Z,35.40
2022-08-04T11:27:59.949Z,35.50
2022-08-04T11:29:12.284Z,35.50
2022-08-04T11:30:15.800Z,35.50
2022-08-04T11:31:25.734Z,35.60
2022-08-04T11:32:35.879Z,35.60
2022-08-04T11:33:56.684Z,35.70
2022-08-04T11:35:02.590Z,35.70
2022-08-04T11:36:49.917Z,35.80
2022-08-04T11:38:19.489Z,35.80
2022-08-04T11:39:37.267Z,35.90
2022-08-04T11:41:02.805Z,36.00
2022-08-04T11:42:15.016Z,36.00
2022-08-04T11:44:02.579Z,36.10
2022-08-04T11:44:59.539Z,36.00
2022-08-04T11:46:12.822Z,36.00
2022-08-04T11:47:21.422Z,36.00
2022-08-04T11:48:35.782Z,36.20
2022-08-04T11:49:56.012Z,36.00
2022-08-04T11:51:02.515Z,36.00
2022-08-04T11:52:11.767Z,36.10
2022-08-04T11:53:17.217Z,36.20
2022-08-04T11:54:20.397Z,36.30
2022-08-04T11:55:25.432Z,36.30
2022-08-04T11:56:36.949Z,36.30
2022-08-04T11:57:40.074Z,36.40
2022-08-04T11:58:50.491Z,36.40
2022-08-04T11:59:57.106Z,36.50
2022-08-04T12:01:20.023Z,36.50
2022-08-04T12:02:53.074Z,36.50
2022-08-04T12:04:04.303Z,36.60
2022-08-04T12:05:09.228Z,36.60
2022-08-04T12:06:29.156Z,36.50
2022-08-04T12:07:49.577Z,36.50
2022-08-04T12:09:14.751Z,36.50
2022-08-04T12:10:42.681Z,36.50
2022-08-04T12:12:03.873Z,36.50
2022-08-04T12:13:37.195Z,36.40
2022-08-04T12:14:52.671Z,36.40
2022-08-04T12:16:10.745Z,36.50
2022-08-04T12:17:18.715Z,36.50
2022-08-04T12:18:34.769Z,36.50
2022-08-04T12:20:04.126Z,36.60
2022-08-04T12:21:53.294Z,36.70
2022-08-04T12:22:58.069Z,36.70
2022-08-04T12:24:08.409Z,36.70
2022-08-04T12:25:16.211Z,36.70
2022-08-04T12:26:24.797Z,36.80
2022-08-04T12:27:48.282Z,36.80
2022-08-04T12:29:13.037Z,36.90
2022-08-04T12:30:57.436Z,37.00
2022-08-04T12:31:51.104Z,37.00
2022-08-04T12:33:04.144Z,37.00
2022-08-04T12:34:31.109Z,37.10
2022-08-04T12:35:39.519Z,37.10
2022-08-04T12:37:31.853Z,37.10
2022-08-04T12:38:35.281Z,37.10
2022-08-04T12:40:21.557Z,37.20
2022-08-04T12:41:03.685Z,37.10
2022-08-04T12:42:22.281Z,37.30
2022-08-04T12:43:34.970Z,37.30
2022-08-04T12:44:39.339Z,37.30
2022-08-04T12:45:50.144Z,37.30
2022-08-04T12:46:52.539Z,37.50
2022-08-04T12:47:58.214Z,37.40
2022-08-04T12:49:04.009Z,37.50
2022-08-04T12:50:07.981Z,37.60
2022-08-04T12:52:06.796Z,37.60
2022-08-04T12:53:02.258Z,37.70
2022-08-04T12:54:06.919Z,37.80
2022-08-04T12:55:10.522Z,37.90
2022-08-04T12:56:16.346Z,37.90
2022-08-04T12:57:18.968Z,38.00
2022-08-04T12:58:42.871Z,38.10
2022-08-04T12:59:47.977Z,38.10
2022-08-04T13:02:09.290Z,38.20
2022-08-04T13:02:33.024Z,38.20
2022-08-04T13:03:46.757Z,38.40
2022-08-04T13:04:51.185Z,38.40
2022-08-04T13:05:55.818Z,38.50
2022-08-04T13:07:02.896Z,38.50
2022-08-04T13:08:06.641Z,38.60
2022-08-04T13:09:17.613Z,38.70
2022-08-04T13:10:30.368Z,38.70
2022-08-04T13:11:39.070Z,38.70
2022-08-04T13:12:45.886Z,38.80
2022-08-04T13:14:10.937Z,38.90
2022-08-04T13:15:20.615Z,38.90
2022-08-04T13:16:32.895Z,39.00
2022-08-04T13:18:14.002Z,39.10
2022-08-04T13:19:17.185Z,39.20
2022-08-04T13:20:29.829Z,39.30
2022-08-04T13:22:01.828Z,39.30
2022-08-04T13:23:21.803Z,39.30
2022-08-04T13:24:32.137Z,39.40
2022-08-04T13:26:43.169Z,39.50
2022-08-04T13:27:09.135Z,39.50
2022-08-04T13:28:23.426Z,39.60
2022-08-04T13:29:59.555Z,39.70
2022-08-04T13:30:58.918Z,39.70
2022-08-04T13:32:02.535Z,39.80
2022-08-04T13:33:05.761Z,39.90
2022-08-04T13:34:19.028Z,39.90
2022-08-04T13:35:21.713Z,39.90
2022-08-04T13:36:28.211Z,39.80
2022-08-04T13:37:36.214Z,39.80
2022-08-04T13:38:45.244Z,39.90
2022-08-04T13:39:55.765Z,40.00
2022-08-04T13:41:02.056Z,40.00
2022-08-04T13:42:10.705Z,40.00
2022-08-04T13:44:16.042Z,40.00
2022-08-04T13:44:49.085Z,40.20
2022-08-04T13:45:51.743Z,40.10
2022-08-04T13:46:59.477Z,40.20
2022-08-04T13:48:14.974Z,40.20
2022-08-04T13:49:37.769Z,40.20
2022-08-04T13:50:47.036Z,40.20
2022-08-04T13:52:11.324Z,40.20
2022-08-04T13:53:17.594Z,40.00
2022-08-04T13:54:24.294Z,39.90
2022-08-04T13:55:35.036Z,39.80
2022-08-04T13:56:40.327Z,39.70
2022-08-04T13:57:47.081Z,39.60
2022-08-04T13:58:54.315Z,39.60
2022-08-04T14:00:01.776Z,39.60
2022-08-04T14:01:19.507Z,39.70
2022-08-04T14:02:42.377Z,39.90
2022-08-04T14:03:53.594Z,40.00
2022-08-04T14:05:01.894Z,40.20
2022-08-04T14:06:15.426Z,40.30
2022-08-04T14:07:21.059Z,40.20
2022-08-04T14:08:29.039Z,40.10
2022-08-04T14:09:38.104Z,40.00
2022-08-04T14:10:40.396Z,39.90
2022-08-04T14:12:10.643Z,40.00
2022-08-04T14:13:09.700Z,39.90
2022-08-04T14:14:32.868Z,39.90
2022-08-04T14:16:01.977Z,40.00
2022-08-04T14:17:05.790Z,40.10
2022-08-04T14:18:28.364Z,40.20
2022-08-04T14:19:46.716Z,40.20
2022-08-04T14:20:58.997Z,40.30
2022-08-04T14:22:02.241Z,40.20
2022-08-04T14:23:04.045Z,40.00
2022-08-04T14:24:05.864Z,40.00
2022-08-04T14:25:16.974Z,39.90
2022-08-04T14:26:32.676Z,39.90
2022-08-04T14:27:50.930Z,39.80
2022-08-04T14:29:25.312Z,39.80
2022-08-04T14:30:32.809Z,39.80
2022-08-04T14:31:35.813Z,39.80
2022-08-04T14:32:57.991Z,39.70
2022-08-04T14:34:04.805Z,39.70
2022-08-04T14:35:12.438Z,39.70
2022-08-04T14:36:16.248Z,39.70
2022-08-04T14:37:24.271Z,39.70
2022-08-04T14:38:42.834Z,39.60
2022-08-04T14:40:18.640Z,39.60
2022-08-04T14:41:13.342Z,39.70
2022-08-04T14:42:15.469Z,39.50
2022-08-04T14:43:19.381Z,39.50
2022-08-04T14:44:21.562Z,39.40
2022-08-04T14:45:36.595Z,39.20
2022-08-04T14:46:55.964Z,39.20
2022-08-04T14:47:58.352Z,39.10
2022-08-04T14:49:12.456Z,39.00
2022-08-04T14:50:15.248Z,38.90
2022-08-04T14:51:17.665Z,38.80
2022-08-04T14:52:27.999Z,38.70
2022-08-04T14:53:29.900Z,38.70
2022-08-04T14:54:34.107Z,38.80
2022-08-04T14:55:37.238Z,38.60
2022-08-04T14:56:52.447Z,38.60
2022-08-04T14:58:33.868Z,38.60
2022-08-04T14:59:15.972Z,38.60
2022-08-04T15:00:28.929Z,38.60
2022-08-04T15:01:31.412Z,38.50
2022-08-04T15:02:36.308Z,38.30
2022-08-04T15:03:49.687Z,38.50
2022-08-04T15:04:53.760Z,38.50
2022-08-04T15:06:05.434Z,38.50
2022-08-04T15:07:09.942Z,38.50
2022-08-04T15:08:13.613Z,38.50
2022-08-04T15:09:15.721Z,38.50
2022-08-04T15:10:17.506Z,38.40
2022-08-04T15:11:23.346Z,38.40
2022-08-04T15:12:26.696Z,38.40
2022-08-04T15:13:32.497Z,38.30
2022-08-04T15:14:37.960Z,38.30
2022-08-04T15:15:43.790Z,38.30
2022-08-04T15:17:12.051Z,38.40
2022-08-04T15:18:30.498Z,38.30
2022-08-04T15:19:33.764Z,38.30
2022-08-04T15:20:36.508Z,38.20
2022-08-04T15:21:39.238Z,38.20
2022-08-04T15:22:43.289Z,38.20
2022-08-04T15:23:45.134Z,38.20
2022-08-04T15:24:52.082Z,38.20
2022-08-04T15:26:01.250Z,38.20
2022-08-04T15:27:05.247Z,38.20
2022-08-04T15:28:12.262Z,38.30
2022-08-04T15:29:59.260Z,38.30
2022-08-04T15:31:10.526Z,38.40
2022-08-04T15:32:32.022Z,38.50
2022-08-04T15:33:34.545Z,38.70
2022-08-04T15:34:46.307Z,38.90
2022-08-04T15:35:52.847Z,39.20
2022-08-04T15:36:57.992Z,39.50
2022-08-04T15:38:00.251Z,39.90
2022-08-04T15:39:23.573Z,40.40
2022-08-04T15:40:33.033Z,40.80
2022-08-04T15:41:55.177Z,41.50
2022-08-04T15:43:10.713Z,42.10
2022-08-04T15:44:55.184Z,42.70
2022-08-04T15:46:41.951Z,43.40
2022-08-04T15:47:23.593Z,44.30
2022-08-04T15:48:29.090Z,45.00
2022-08-04T15:49:34.705Z,45.40
2022-08-04T15:50:56.802Z,45.90
2022-08-04T15:52:12.057Z,46.40
2022-08-04T15:53:14.424Z,47.00
2022-08-04T15:54:27.884Z,47.50
2022-08-04T15:55:41.065Z,48.00
2022-08-04T15:56:48.520Z,48.50
2022-08-04T15:58:06.756Z,49.00
2022-08-04T15:59:09.272Z,49.60
2022-08-04T16:00:15.061Z,50.00
2022-08-04T16:01:18.078Z,50.30
2022-08-04T16:02:36.178Z,50.70
2022-08-04T16:03:58.830Z,51.20
2022-08-04T16:05:17.705Z,51.60